createdAt,value
2019-05-18T00:00:57.179Z,0.00
2019-05-18T00:01:57.187Z,0.00
2019-05-18T00:02:57.186Z,0.00
2019-05-18T00:03:57.199Z,0.00
2019-05-18T00:04:57.204Z,0.00
2019-05-18T00:05:57.223Z,0.00
2019-05-18T00:06:57.216Z,0.00
2019-05-18T00:07:57.225Z,0.00
2019-05-18T00:08:57.237Z,0.00
2019-05-18T00:09:57.247Z,0.00
2019-05-18T00:10:57.261Z,0.00
2019-05-18T00:11:57.260Z,0.00
2019-05-18T00:12:57.261Z,0.00
2019-05-18T00:13:57.270Z,0.00
2019-05-18T00:14:57.278Z,0.00
2019-05-18T00:15:57.285Z,0.00
2019-05-18T00:16:57.289Z,0.00
2019-05-18T00:17:57.300Z,0.00
2019-05-18T00:18:57.304Z,0.00
2019-05-18T00:19:57.312Z,0.00
2019-05-18T00:20:57.334Z,0.00
2019-05-18T00:21:57.326Z,0.00
2019-05-18T00:22:57.337Z,0.00
2019-05-18T00:23:57.337Z,0.00
2019-05-18T00:24:57.345Z,0.00
2019-05-18T00:25:57.355Z,0.00
2019-05-18T00:26:57.419Z,0.00
2019-05-18T00:27:57.358Z,0.00
2019-05-18T00:28:57.371Z,0.00
2019-05-18T00:29:57.375Z,0.00
2019-05-18T00:30:57.381Z,0.00
2019-05-18T00:31:57.477Z,0.00
2019-05-18T00:32:57.398Z,0.00
2019-05-18T00:33:57.415Z,0.00
2019-05-18T00:34:57.536Z,0.00
2019-05-18T00:35:57.419Z,0.00
2019-05-18T00:36:57.446Z,0.00
2019-05-18T00:37:57.473Z,0.00
2019-05-18T00:38:57.451Z,0.00
2019-05-18T00:39:57.448Z,0.00
2019-05-18T00:40:57.453Z,0.00
2019-05-18T00:41:57.462Z,0.00
2019-05-18T00:42:57.464Z,0.00
2019-05-18T00:43:57.472Z,0.00
2019-05-18T00:44:57.488Z,0.00
2019-05-18T00:45:57.488Z,0.00
2019-05-18T00:46:57.489Z,0.00
2019-05-18T00:47:57.544Z,0.00
2019-05-18T00:48:57.503Z,0.00
2019-05-18T00:49:57.519Z,0.00
2019-05-18T00:50:57.522Z,0.00
2019-05-18T00:51:57.525Z,0.00
2019-05-18T00:52:57.540Z,0.00
2019-05-18T00:53:57.539Z,0.00
2019-05-18T00:54:57.549Z,0.00
2019-05-18T00:55:57.551Z,0.00
2019-05-18T00:56:57.572Z,0.00
2019-05-18T00:57:57.565Z,0.00
2019-05-18T00:58:57.574Z,0.00
2019-05-18T00:59:57.587Z,0.00
2019-05-18T01:00:57.589Z,0.00
2019-05-18T01:01:57.594Z,0.00
2019-05-18T01:02:57.616Z,0.00
2019-05-18T01:03:57.595Z,0.00
2019-05-18T01:04:57.606Z,0.00
2019-05-18T01:05:57.620Z,0.00
2019-05-18T01:06:57.619Z,0.00
2019-05-18T01:07:57.622Z,0.00
2019-05-18T01:08:57.631Z,0.00
2019-05-18T01:09:57.637Z,0.00
2019-05-18T01:10:57.650Z,0.00
2019-05-18T01:11:57.662Z,0.00
2019-05-18T01:12:57.656Z,0.00
2019-05-18T01:13:57.673Z,0.00
2019-05-18T01:14:57.673Z,0.00
2019-05-18T01:15:57.680Z,0.00
2019-05-18T01:16:57.693Z,0.00
2019-05-18T01:18:01.430Z,0.00
2019-05-18T01:18:57.707Z,0.00
2019-05-18T01:19:57.713Z,0.00
2019-05-18T01:20:57.719Z,0.00
2019-05-18T01:21:57.726Z,0.00
2019-05-18T01:22:57.729Z,0.00
2019-05-18T01:23:57.728Z,0.00
2019-05-18T01:24:57.748Z,0.00
2019-05-18T01:25:57.755Z,0.00
2019-05-18T01:26:57.759Z,0.00
2019-05-18T01:27:57.761Z,0.00
2019-05-18T01:28:57.832Z,0.00
2019-05-18T01:29:57.775Z,0.00
2019-05-18T01:30:57.779Z,0.00
2019-05-18T01:31:57.797Z,0.00
2019-05-18T01:32:57.798Z,0.00
2019-05-18T01:33:57.801Z,0.00
2019-05-18T01:34:57.811Z,0.00
2019-05-18T01:35:57.807Z,0.00
2019-05-18T01:36:57.825Z,0.00
2019-05-18T01:37:57.836Z,0.00
2019-05-18T01:38:57.895Z,0.00
2019-05-18T01:39:57.847Z,0.00
2019-05-18T01:40:57.859Z,0.00
2019-05-18T01:41:57.858Z,0.00
2019-05-18T01:42:57.860Z,0.00
2019-05-18T01:43:57.870Z,0.00
2019-05-18T01:44:57.875Z,0.00
2019-05-18T01:45:57.916Z,0.00
2019-05-18T01:46:57.879Z,0.00
2019-05-18T01:48:12.732Z,0.00
2019-05-18T01:48:58.022Z,0.00
2019-05-18T01:49:57.909Z,0.00
2019-05-18T01:50:57.915Z,0.00
2019-05-18T01:51:57.923Z,0.00
2019-05-18T01:52:57.927Z,0.00
2019-05-18T01:53:57.931Z,0.00
2019-05-18T01:54:57.937Z,0.00
2019-05-18T01:55:57.949Z,0.00
2019-05-18T01:56:57.949Z,0.00
2019-05-18T01:57:57.958Z,0.00
2019-05-18T01:58:57.966Z,0.00
2019-05-18T01:59:57.973Z,0.00
2019-05-18T02:00:57.978Z,0.00
2019-05-18T02:01:57.988Z,0.00
2019-05-18T02:02:57.987Z,0.00
2019-05-18T02:03:58.064Z,0.00
2019-05-18T02:04:58.005Z,0.00
2019-05-18T02:05:58.010Z,0.00
2019-05-18T02:06:58.020Z,0.00
2019-05-18T02:07:58.027Z,0.00
2019-05-18T02:08:58.040Z,0.00
2019-05-18T02:09:58.051Z,0.00
2019-05-18T02:10:58.093Z,0.00
2019-05-18T02:11:58.045Z,0.00
2019-05-18T02:12:58.054Z,0.00
2019-05-18T02:13:58.073Z,0.00
2019-05-18T02:14:58.077Z,0.00
2019-05-18T02:15:58.076Z,0.00
2019-05-18T02:16:58.082Z,0.00
2019-05-18T02:17:58.083Z,0.00
2019-05-18T02:18:58.094Z,0.00
2019-05-18T02:19:58.092Z,0.00
2019-05-18T02:20:58.109Z,0.00
2019-05-18T02:21:58.111Z,0.00
2019-05-18T02:22:58.120Z,0.00
2019-05-18T02:23:58.124Z,0.00
2019-05-18T02:24:58.125Z,0.00
2019-05-18T02:25:58.141Z,0.00
2019-05-18T02:26:58.269Z,0.00
2019-05-18T02:27:58.151Z,0.00
2019-05-18T02:28:58.147Z,0.00
2019-05-18T02:29:58.215Z,0.00
2019-05-18T02:30:58.165Z,0.00
2019-05-18T02:31:58.183Z,0.00
2019-05-18T02:32:58.192Z,0.00
2019-05-18T02:33:58.207Z,0.00
2019-05-18T02:34:58.195Z,0.00
2019-05-18T02:35:58.207Z,0.00
2019-05-18T02:36:58.214Z,0.00
2019-05-18T02:37:58.214Z,0.00
2019-05-18T02:38:58.225Z,0.00
2019-05-18T02:39:58.292Z,0.00
2019-05-18T02:40:58.237Z,0.00
2019-05-18T02:41:58.247Z,0.00
2019-05-18T02:42:58.250Z,0.00
2019-05-18T02:43:58.262Z,0.00
2019-05-18T02:44:58.260Z,0.00
2019-05-18T02:45:58.260Z,0.00
2019-05-18T02:46:58.284Z,0.00
2019-05-18T02:47:58.281Z,0.00
2019-05-18T02:48:58.286Z,0.00
2019-05-18T02:49:58.300Z,0.00
2019-05-18T02:50:58.300Z,0.00
2019-05-18T02:51:58.310Z,0.00
2019-05-18T02:52:58.321Z,0.00
2019-05-18T02:53:58.320Z,0.00
2019-05-18T02:54:58.336Z,0.00
2019-05-18T02:55:58.333Z,4.00
2019-05-18T02:56:58.333Z,4.00
2019-05-18T02:57:58.346Z,4.00
2019-05-18T02:58:58.343Z,0.00
2019-05-18T02:59:58.354Z,4.00
2019-05-18T03:00:58.356Z,4.00
2019-05-18T03:01:58.365Z,4.00
2019-05-18T03:02:58.375Z,4.00
2019-05-18T03:03:58.372Z,4.00
2019-05-18T03:04:58.414Z,4.00
2019-05-18T03:05:58.402Z,8.00
2019-05-18T03:06:58.399Z,8.00
2019-05-18T03:07:58.527Z,8.00
2019-05-18T03:08:58.410Z,8.00
2019-05-18T03:09:58.413Z,12.00
2019-05-18T03:10:58.414Z,12.00
2019-05-18T03:11:58.434Z,16.00
2019-05-18T03:12:58.428Z,20.00
2019-05-18T03:13:58.452Z,20.00
2019-05-18T03:14:58.438Z,24.00
2019-05-18T03:15:58.450Z,28.00
2019-05-18T03:16:58.474Z,28.00
2019-05-18T03:17:58.600Z,36.00
2019-05-18T03:19:08.107Z,36.00
2019-05-18T03:19:58.473Z,44.00
2019-05-18T03:20:58.506Z,48.00
2019-05-18T03:22:01.001Z,52.00
2019-05-18T03:22:58.493Z,60.00
2019-05-18T03:23:58.508Z,64.00
2019-05-18T03:24:58.502Z,76.00
2019-05-18T03:25:58.523Z,84.00
2019-05-18T03:26:58.518Z,92.00
2019-05-18T03:27:58.527Z,100.00
2019-05-18T03:28:58.525Z,112.00
2019-05-18T03:29:58.535Z,120.00
2019-05-18T03:30:58.667Z,132.00
2019-05-18T03:31:58.589Z,144.00
2019-05-18T03:32:58.551Z,156.00
2019-05-18T03:33:58.573Z,168.00
2019-05-18T03:34:58.587Z,180.00
2019-05-18T03:35:58.576Z,192.00
2019-05-18T03:36:58.575Z,208.00
2019-05-18T03:37:58.584Z,224.00
2019-05-18T03:38:58.590Z,240.00
2019-05-18T03:39:58.591Z,256.00
2019-05-18T03:40:58.601Z,272.00
2019-05-18T03:41:58.617Z,288.00
2019-05-18T03:42:58.615Z,308.00
2019-05-18T03:43:58.616Z,328.00
2019-05-18T03:44:58.624Z,348.00
2019-05-18T03:45:58.635Z,368.00
2019-05-18T03:46:58.637Z,388.00
2019-05-18T03:47:58.643Z,408.00
2019-05-18T03:48:58.651Z,432.00
2019-05-18T03:49:58.655Z,456.00
2019-05-18T03:50:58.663Z,480.00
2019-05-18T03:51:58.668Z,504.00
2019-05-18T03:52:58.676Z,528.00
2019-05-18T03:53:58.680Z,552.00
2019-05-18T03:54:58.687Z,580.00
2019-05-18T03:55:58.695Z,604.00
2019-05-18T03:56:58.699Z,632.00
2019-05-18T03:57:58.703Z,660.00
2019-05-18T03:58:58.851Z,688.00
2019-05-18T03:59:58.719Z,712.00
2019-05-18T04:00:58.725Z,744.00
2019-05-18T04:01:58.736Z,776.00
2019-05-18T04:02:58.731Z,800.00
2019-05-18T04:03:58.741Z,832.00
2019-05-18T04:04:58.748Z,860.00
2019-05-18T04:05:58.757Z,896.00
2019-05-18T04:06:58.760Z,924.00
2019-05-18T04:07:58.771Z,952.00
2019-05-18T04:08:58.765Z,984.00
2019-05-18T04:09:58.785Z,1016.00
2019-05-18T04:10:58.809Z,1052.00
2019-05-18T04:11:58.835Z,1080.00
2019-05-18T04:12:58.800Z,1120.00
2019-05-18T04:13:58.809Z,1156.00
2019-05-18T04:14:58.816Z,1180.00
2019-05-18T04:15:58.813Z,1204.00
2019-05-18T04:16:58.821Z,1212.00
2019-05-18T04:17:58.827Z,1212.00
2019-05-18T04:18:58.836Z,1280.00
2019-05-18T04:19:58.830Z,1344.00
2019-05-18T04:20:58.845Z,1404.00
2019-05-18T04:21:58.856Z,1424.00
2019-05-18T04:22:58.860Z,1472.00
2019-05-18T04:23:58.863Z,1512.00
2019-05-18T04:24:58.870Z,1556.00
2019-05-18T04:25:58.878Z,1596.00
2019-05-18T04:26:58.882Z,1632.00
2019-05-18T04:27:58.886Z,1680.00
2019-05-18T04:28:58.904Z,1724.00
2019-05-18T04:29:58.903Z,1764.00
2019-05-18T04:30:58.913Z,1800.00
2019-05-18T04:31:58.923Z,1840.00
2019-05-18T04:32:58.921Z,1876.00
2019-05-18T04:33:58.923Z,1912.00
2019-05-18T04:34:58.930Z,1952.00
2019-05-18T04:35:58.935Z,1988.00
2019-05-18T04:36:58.942Z,2032.00
2019-05-18T04:37:58.950Z,2060.00
2019-05-18T04:38:58.970Z,2072.00
2019-05-18T04:39:59.054Z,2100.00
2019-05-18T04:40:58.969Z,2168.00
2019-05-18T04:41:58.972Z,2208.00
2019-05-18T04:42:58.982Z,2252.00
2019-05-18T04:43:58.995Z,2292.00
2019-05-18T04:44:58.996Z,2340.00
2019-05-18T04:45:59.000Z,2376.00
2019-05-18T04:46:59.004Z,2412.00
2019-05-18T04:47:59.071Z,2452.00
2019-05-18T04:48:59.017Z,2472.00
2019-05-18T04:50:05.401Z,2508.00
2019-05-18T04:50:59.036Z,2576.00
2019-05-18T04:51:59.038Z,2592.00
2019-05-18T04:52:59.045Z,2624.00
2019-05-18T04:53:59.051Z,2688.00
2019-05-18T04:54:59.061Z,2688.00
2019-05-18T04:55:59.063Z,2728.00
2019-05-18T04:56:59.070Z,2776.00
2019-05-18T04:57:59.084Z,2800.00
2019-05-18T04:58:59.115Z,2836.00
2019-05-18T04:59:59.144Z,2876.00
2019-05-18T05:00:59.109Z,2912.00
2019-05-18T05:01:59.181Z,2952.00
2019-05-18T05:02:59.129Z,2992.00
2019-05-18T05:03:59.130Z,3032.00
2019-05-18T05:04:59.132Z,3068.00
2019-05-18T05:05:59.151Z,3100.00
2019-05-18T05:06:59.154Z,3156.00
2019-05-18T05:07:59.140Z,3180.00
2019-05-18T05:08:59.176Z,3200.00
2019-05-18T05:09:59.176Z,3224.00
2019-05-18T05:10:59.187Z,3256.00
2019-05-18T05:11:59.182Z,3272.00
2019-05-18T05:12:59.258Z,3316.00
2019-05-18T05:13:59.203Z,3320.00
2019-05-18T05:14:59.207Z,3360.00
2019-05-18T05:15:59.213Z,3396.00
2019-05-18T05:16:59.212Z,3412.00
2019-05-18T05:17:59.222Z,3428.00
2019-05-18T05:18:59.234Z,3436.00
2019-05-18T05:19:59.247Z,3432.00
2019-05-18T05:20:59.229Z,3568.00
2019-05-18T05:21:59.257Z,3256.00
2019-05-18T05:22:59.259Z,3156.00
2019-05-18T05:23:59.273Z,3368.00
2019-05-18T05:24:59.280Z,3276.00
2019-05-18T05:25:59.268Z,3000.00
2019-05-18T05:26:59.301Z,3420.00
2019-05-18T05:27:59.305Z,3332.00
2019-05-18T05:28:59.296Z,3044.00
2019-05-18T05:29:59.323Z,3044.00
2019-05-18T05:30:59.311Z,3212.00
2019-05-18T05:31:59.327Z,3732.00
2019-05-18T05:32:59.322Z,3700.00
2019-05-18T05:33:59.392Z,3812.00
2019-05-18T05:34:59.348Z,3896.00
2019-05-18T05:35:59.344Z,3908.00
2019-05-18T05:36:59.351Z,3968.00
2019-05-18T05:37:59.358Z,4008.00
2019-05-18T05:38:59.380Z,4036.00
2019-05-18T05:39:59.368Z,4064.00
2019-05-18T05:40:59.439Z,4092.00
2019-05-18T05:41:59.384Z,4160.00
2019-05-18T05:42:59.394Z,4148.00
2019-05-18T05:43:59.402Z,4176.00
2019-05-18T05:44:59.406Z,4188.00
2019-05-18T05:45:59.420Z,4252.00
2019-05-18T05:46:59.441Z,4276.00
2019-05-18T05:47:59.423Z,4296.00
2019-05-18T05:48:59.436Z,4352.00
2019-05-18T05:49:59.446Z,4392.00
2019-05-18T05:50:59.458Z,4440.00
2019-05-18T05:51:59.458Z,4456.00
2019-05-18T05:52:59.473Z,4468.00
2019-05-18T05:53:59.472Z,4496.00
2019-05-18T05:54:59.492Z,4540.00
2019-05-18T05:55:59.488Z,4336.00
2019-05-18T05:56:59.492Z,4300.00
2019-05-18T05:57:59.498Z,4764.00
2019-05-18T05:58:59.510Z,4804.00
2019-05-18T05:59:59.522Z,5088.00
2019-05-18T06:00:59.604Z,5048.00
2019-05-18T06:01:59.532Z,5012.00
2019-05-18T06:02:59.539Z,5072.00
2019-05-18T06:03:59.557Z,5160.00
2019-05-18T06:04:59.556Z,5272.00
2019-05-18T06:05:59.567Z,5420.00
2019-05-18T06:06:59.574Z,5232.00
2019-05-18T06:07:59.583Z,5628.00
2019-05-18T06:08:59.596Z,5892.00
2019-05-18T06:09:59.596Z,5892.00
2019-05-18T06:10:59.607Z,6064.00
2019-05-18T06:11:59.612Z,6376.00
2019-05-18T06:12:59.622Z,6364.00
2019-05-18T06:13:59.636Z,6328.00
2019-05-18T06:14:59.634Z,6280.00
2019-05-18T06:15:59.649Z,6336.00
2019-05-18T06:16:59.659Z,6348.00
2019-05-18T06:17:59.656Z,6368.00
2019-05-18T06:18:59.675Z,6436.00
2019-05-18T06:19:59.682Z,6488.00
2019-05-18T06:20:59.701Z,6556.00
2019-05-18T06:21:59.701Z,6584.00
2019-05-18T06:22:59.713Z,6664.00
2019-05-18T06:23:59.727Z,6636.00
2019-05-18T06:24:59.736Z,6668.00
2019-05-18T06:25:59.752Z,6780.00
2019-05-18T06:26:59.755Z,6888.00
2019-05-18T06:27:59.766Z,6948.00
2019-05-18T06:28:59.780Z,6964.00
2019-05-18T06:29:59.803Z,7128.00
2019-05-18T06:30:59.826Z,7180.00
2019-05-18T06:31:59.818Z,7208.00
2019-05-18T06:32:59.831Z,7156.00
2019-05-18T06:33:59.843Z,7184.00
2019-05-18T06:34:59.859Z,7152.00
2019-05-18T06:35:59.873Z,7320.00
2019-05-18T06:36:59.877Z,7280.00
2019-05-18T06:37:59.893Z,7344.00
2019-05-18T06:38:59.904Z,7404.00
2019-05-18T06:39:59.922Z,7232.00
2019-05-18T06:40:59.938Z,7364.00
2019-05-18T06:41:59.956Z,7440.00
2019-05-18T06:42:59.964Z,7400.00
2019-05-18T06:43:59.975Z,7248.00
2019-05-18T06:44:59.989Z,7560.00
2019-05-18T06:46:00.003Z,7540.00
2019-05-18T06:47:00.015Z,7568.00
2019-05-18T06:48:00.036Z,7676.00
2019-05-18T06:49:00.053Z,7772.00
2019-05-18T06:50:00.056Z,7932.00
2019-05-18T06:51:07.114Z,7908.00
2019-05-18T06:52:00.085Z,8068.00
2019-05-18T06:53:00.104Z,8200.00
2019-05-18T06:54:00.120Z,8408.00
2019-05-18T06:55:00.135Z,8396.00
2019-05-18T06:56:00.144Z,8508.00
2019-05-18T06:57:00.158Z,8692.00
2019-05-18T06:58:00.176Z,8608.00
2019-05-18T06:59:00.184Z,8668.00
2019-05-18T07:00:00.216Z,8656.00
2019-05-18T07:01:00.232Z,8716.00
2019-05-18T07:02:00.233Z,8692.00
2019-05-18T07:03:00.251Z,8656.00
2019-05-18T07:04:00.275Z,8808.00
2019-05-18T07:05:00.273Z,8936.00
2019-05-18T07:06:00.300Z,8876.00
2019-05-18T07:07:00.310Z,9084.00
2019-05-18T07:08:00.328Z,9092.00
2019-05-18T07:09:00.337Z,9320.00
2019-05-18T07:10:00.353Z,9244.00
2019-05-18T07:11:00.359Z,9392.00
2019-05-18T07:12:00.379Z,9480.00
2019-05-18T07:13:00.400Z,9548.00
2019-05-18T07:14:00.417Z,9560.00
2019-05-18T07:15:00.713Z,9808.00
2019-05-18T07:16:00.447Z,8776.00
2019-05-18T07:17:00.457Z,9808.00
2019-05-18T07:18:00.480Z,9844.00
2019-05-18T07:19:00.486Z,9948.00
2019-05-18T07:20:00.504Z,8960.00
2019-05-18T07:21:00.519Z,10124.00
2019-05-18T07:22:00.542Z,10096.00
2019-05-18T07:23:00.561Z,9904.00
2019-05-18T07:24:00.605Z,10152.00
2019-05-18T07:25:00.590Z,9928.00
2019-05-18T07:26:00.593Z,9604.00
2019-05-18T07:27:00.609Z,9516.00
2019-05-18T07:28:00.635Z,9636.00
2019-05-18T07:29:00.645Z,9360.00
2019-05-18T07:30:00.670Z,9428.00
2019-05-18T07:31:00.677Z,9824.00
2019-05-18T07:32:00.698Z,9940.00
2019-05-18T07:33:00.713Z,10292.00
2019-05-18T07:34:00.739Z,10452.00
2019-05-18T07:35:00.743Z,10616.00
2019-05-18T07:36:00.755Z,10824.00
2019-05-18T07:37:00.764Z,11072.00
2019-05-18T07:38:00.779Z,10932.00
2019-05-18T07:39:00.802Z,11152.00
2019-05-18T07:40:00.820Z,10992.00
2019-05-18T07:41:00.895Z,10688.00
2019-05-18T07:42:00.871Z,10828.00
2019-05-18T07:43:00.878Z,11248.00
2019-05-18T07:44:00.881Z,11164.00
2019-05-18T07:45:00.905Z,11256.00
2019-05-18T07:46:00.928Z,11296.00
2019-05-18T07:47:00.930Z,10624.00
2019-05-18T07:49:00.962Z,11304.00
2019-05-18T07:50:00.989Z,11132.00
2019-05-18T07:51:01.002Z,11480.00
2019-05-18T07:52:01.020Z,12144.00
2019-05-18T07:53:01.027Z,12564.00
2019-05-18T07:54:01.051Z,12456.00
2019-05-18T07:55:01.065Z,12512.00
2019-05-18T07:56:01.080Z,12692.00
2019-05-18T07:57:01.106Z,12740.00
2019-05-18T07:58:01.118Z,12676.00
2019-05-18T07:59:01.130Z,12952.00
2019-05-18T08:00:01.142Z,13540.00
2019-05-18T08:01:01.160Z,13896.00
2019-05-18T08:02:01.229Z,13972.00
2019-05-18T08:03:01.224Z,14336.00
2019-05-18T08:04:01.219Z,14624.00
2019-05-18T08:05:01.222Z,14836.00
2019-05-18T08:06:01.327Z,14964.00
2019-05-18T08:07:01.258Z,15040.00
2019-05-18T08:08:01.287Z,15512.00
2019-05-18T08:09:01.305Z,15888.00
2019-05-18T08:10:01.306Z,16216.00
2019-05-18T08:11:01.324Z,16236.00
2019-05-18T08:12:01.342Z,17120.00
2019-05-18T08:13:01.356Z,17696.00
2019-05-18T08:14:01.382Z,17568.00
2019-05-18T08:15:01.416Z,17536.00
2019-05-18T08:16:01.450Z,18240.00
2019-05-18T08:17:01.431Z,17312.00
2019-05-18T08:18:01.442Z,18112.00
2019-05-18T08:19:01.471Z,17696.00
2019-05-18T08:20:01.483Z,17312.00
2019-05-18T08:21:01.494Z,14872.00
2019-05-18T08:22:01.511Z,15748.00
2019-05-18T08:23:01.527Z,17280.00
2019-05-18T08:24:01.550Z,19232.00
2019-05-18T08:25:01.573Z,19232.00
2019-05-18T08:26:01.609Z,18944.00
2019-05-18T08:27:02.443Z,18048.00
2019-05-18T08:28:01.625Z,16704.00
2019-05-18T08:29:01.633Z,16736.00
2019-05-18T08:30:01.680Z,17376.00
2019-05-18T08:31:01.664Z,15920.00
2019-05-18T08:32:01.685Z,16008.00
2019-05-18T08:33:01.857Z,15924.00
2019-05-18T08:34:01.740Z,15748.00
2019-05-18T08:35:01.733Z,15864.00
2019-05-18T08:36:01.778Z,17568.00
2019-05-18T08:37:01.782Z,18976.00
2019-05-18T08:38:01.813Z,18624.00
2019-05-18T08:39:01.890Z,19552.00
2019-05-18T08:40:01.821Z,20736.00
2019-05-18T08:41:01.857Z,20224.00
2019-05-18T08:42:01.848Z,19136.00
2019-05-18T08:43:01.913Z,19200.00
2019-05-18T08:44:01.895Z,19040.00
2019-05-18T08:45:01.894Z,18464.00
2019-05-18T08:46:01.976Z,18400.00
2019-05-18T08:47:01.970Z,19104.00
2019-05-18T08:48:01.971Z,18752.00
2019-05-18T08:49:01.981Z,18752.00
2019-05-18T08:50:01.994Z,19584.00
2019-05-18T08:51:02.010Z,19936.00
2019-05-18T08:52:08.242Z,20224.00
2019-05-18T08:53:02.043Z,19488.00
2019-05-18T08:54:02.057Z,20416.00
2019-05-18T08:55:02.239Z,20064.00
2019-05-18T08:56:02.094Z,21856.00
2019-05-18T08:57:02.112Z,20768.00
2019-05-18T08:58:02.127Z,20000.00
2019-05-18T08:59:02.145Z,20416.00
2019-05-18T09:00:02.178Z,19648.00
2019-05-18T09:01:02.179Z,20160.00
2019-05-18T09:02:02.195Z,18880.00
2019-05-18T09:03:02.212Z,18400.00
2019-05-18T09:04:02.228Z,18272.00
2019-05-18T09:05:04.829Z,18432.00
2019-05-18T09:06:02.258Z,19168.00
2019-05-18T09:07:02.294Z,19872.00
2019-05-18T09:08:02.303Z,19264.00
2019-05-18T09:09:02.311Z,19488.00
2019-05-18T09:10:02.342Z,18560.00
2019-05-18T09:11:02.351Z,18624.00
2019-05-18T09:12:02.409Z,18752.00
2019-05-18T09:13:02.429Z,20032.00
2019-05-18T09:14:02.405Z,19264.00
2019-05-18T09:15:02.420Z,19520.00
2019-05-18T09:16:02.446Z,20448.00
2019-05-18T09:17:02.460Z,17984.00
2019-05-18T09:18:04.866Z,17376.00
2019-05-18T09:19:02.499Z,17056.00
2019-05-18T09:20:02.510Z,18944.00
2019-05-18T09:21:02.533Z,17792.00
2019-05-18T09:22:02.548Z,18528.00
2019-05-18T09:23:02.568Z,19392.00
2019-05-18T09:24:02.584Z,19904.00
2019-05-18T09:25:02.718Z,16452.00
2019-05-18T09:26:02.648Z,20384.00
2019-05-18T09:27:02.636Z,21440.00
2019-05-18T09:28:02.658Z,22272.00
2019-05-18T09:29:02.854Z,20608.00
2019-05-18T09:30:02.710Z,19520.00
2019-05-18T09:31:02.704Z,21312.00
2019-05-18T09:32:02.726Z,22304.00
2019-05-18T09:33:02.739Z,22336.00
2019-05-18T09:34:02.758Z,22400.00
2019-05-18T09:35:02.774Z,21984.00
2019-05-18T09:36:02.797Z,20352.00
2019-05-18T09:37:02.813Z,22720.00
2019-05-18T09:38:02.830Z,19520.00
2019-05-18T09:39:02.875Z,20384.00
2019-05-18T09:40:02.871Z,21344.00
2019-05-18T09:41:02.905Z,19840.00
2019-05-18T09:42:02.908Z,19104.00
2019-05-18T09:43:02.917Z,20480.00
2019-05-18T09:44:02.942Z,20896.00
2019-05-18T09:45:02.957Z,21664.00
2019-05-18T09:46:02.968Z,21568.00
2019-05-18T09:47:02.989Z,21280.00
2019-05-18T09:48:03.052Z,21024.00
2019-05-18T09:49:03.029Z,21664.00
2019-05-18T09:50:03.050Z,21696.00
2019-05-18T09:51:03.064Z,22528.00
2019-05-18T09:52:03.140Z,21248.00
2019-05-18T09:53:03.110Z,20448.00
2019-05-18T09:54:03.126Z,20032.00
2019-05-18T09:55:03.146Z,20576.00
2019-05-18T09:56:03.172Z,20480.00
2019-05-18T09:57:03.180Z,20320.00
2019-05-18T09:58:03.196Z,20384.00
2019-05-18T09:59:03.206Z,20448.00
2019-05-18T10:00:03.264Z,23264.00
2019-05-18T10:01:03.250Z,23584.00
2019-05-18T10:02:03.258Z,23552.00
2019-05-18T10:03:03.277Z,24032.00
2019-05-18T10:04:03.310Z,23520.00
2019-05-18T10:05:03.323Z,23232.00
2019-05-18T10:06:03.334Z,24096.00
2019-05-18T10:07:03.360Z,23584.00
2019-05-18T10:08:03.416Z,22560.00
2019-05-18T10:09:03.397Z,21344.00
2019-05-18T10:10:03.421Z,21280.00
2019-05-18T10:11:03.421Z,22304.00
2019-05-18T10:12:03.457Z,21248.00
2019-05-18T10:13:03.470Z,20832.00
2019-05-18T10:14:03.476Z,21184.00
2019-05-18T10:15:03.545Z,19200.00
2019-05-18T10:16:03.516Z,19328.00
2019-05-18T10:17:03.632Z,20416.00
2019-05-18T10:18:03.545Z,20800.00
2019-05-18T10:19:03.565Z,21024.00
2019-05-18T10:20:03.589Z,21344.00
2019-05-18T10:21:03.756Z,22208.00
2019-05-18T10:22:03.617Z,24224.00
2019-05-18T10:23:12.331Z,24224.00
2019-05-18T10:24:03.645Z,24384.00
2019-05-18T10:25:03.675Z,24352.00
2019-05-18T10:26:03.716Z,23136.00
2019-05-18T10:27:03.715Z,23328.00
2019-05-18T10:28:03.731Z,25568.00
2019-05-18T10:29:03.733Z,26080.00
2019-05-18T10:30:03.765Z,23968.00
2019-05-18T10:31:03.801Z,24736.00
2019-05-18T10:32:03.808Z,25056.00
2019-05-18T10:33:03.895Z,20544.00
2019-05-18T10:34:03.843Z,16728.00
2019-05-18T10:35:03.855Z,15168.00
2019-05-18T10:36:03.877Z,14800.00
2019-05-18T10:37:03.902Z,14784.00
2019-05-18T10:38:03.932Z,15344.00
2019-05-18T10:39:03.937Z,15976.00
2019-05-18T10:40:03.948Z,17188.00
2019-05-18T10:41:03.958Z,18592.00
2019-05-18T10:42:03.977Z,19616.00
2019-05-18T10:43:03.997Z,18272.00
2019-05-18T10:44:04.019Z,18048.00
2019-05-18T10:45:04.025Z,18144.00
2019-05-18T10:46:04.045Z,19872.00
2019-05-18T10:47:04.065Z,23904.00
2019-05-18T10:48:04.087Z,23616.00
2019-05-18T10:49:04.097Z,26208.00
2019-05-18T10:50:04.125Z,23616.00
2019-05-18T10:51:05.693Z,31520.00
2019-05-18T10:52:04.154Z,22176.00
2019-05-18T10:53:04.169Z,27008.00
2019-05-18T10:54:04.185Z,32608.00
2019-05-18T10:55:04.204Z,28160.00
2019-05-18T10:56:04.307Z,30848.00
2019-05-18T10:57:04.270Z,18240.00
2019-05-18T10:58:04.266Z,22208.00
2019-05-18T10:59:04.361Z,17120.00
2019-05-18T11:00:04.328Z,18432.00
2019-05-18T11:01:04.391Z,17248.00
2019-05-18T11:02:04.327Z,17344.00
2019-05-18T11:04:04.370Z,19392.00
2019-05-18T11:05:04.402Z,23072.00
2019-05-18T11:06:04.396Z,26560.00
2019-05-18T11:07:04.411Z,29216.00
2019-05-18T11:08:04.439Z,33568.00
2019-05-18T11:09:04.489Z,22496.00
2019-05-18T11:10:04.470Z,20000.00
2019-05-18T11:11:04.524Z,32320.00
2019-05-18T11:12:04.513Z,29888.00
2019-05-18T11:13:04.532Z,24448.00
2019-05-18T11:14:04.538Z,30496.00
2019-05-18T11:15:04.566Z,29728.00
2019-05-18T11:16:04.607Z,26816.00
2019-05-18T11:17:04.626Z,29600.00
2019-05-18T11:18:04.614Z,27904.00
2019-05-18T11:19:04.635Z,28192.00
2019-05-18T11:20:04.648Z,29184.00
2019-05-18T11:21:04.671Z,22944.00
2019-05-18T11:22:04.686Z,27168.00
2019-05-18T11:23:04.710Z,25888.00
2019-05-18T11:24:04.728Z,26144.00
2019-05-18T11:25:04.779Z,27200.00
2019-05-18T11:26:04.841Z,23232.00
2019-05-18T11:27:04.789Z,26784.00
2019-05-18T11:28:04.816Z,25920.00
2019-05-18T11:29:04.826Z,25568.00
2019-05-18T11:30:04.921Z,25536.00
2019-05-18T11:31:04.863Z,25760.00
2019-05-18T11:32:04.884Z,24800.00
2019-05-18T11:33:04.934Z,24032.00
2019-05-18T11:34:04.927Z,23584.00
2019-05-18T11:35:04.942Z,23840.00
2019-05-18T11:36:04.964Z,23360.00
2019-05-18T11:37:04.985Z,23040.00
2019-05-18T11:38:05.001Z,22816.00
2019-05-18T11:39:05.032Z,23072.00
2019-05-18T11:40:05.063Z,23712.00
2019-05-18T11:41:05.157Z,23776.00
2019-05-18T11:42:05.086Z,23296.00
2019-05-18T11:43:05.118Z,23520.00
2019-05-18T11:44:05.118Z,16548.00
2019-05-18T11:45:05.146Z,22368.00
2019-05-18T11:46:05.165Z,22560.00
2019-05-18T11:47:05.182Z,23488.00
2019-05-18T11:48:05.221Z,23040.00
2019-05-18T11:49:05.226Z,22240.00
2019-05-18T11:50:05.235Z,20224.00
2019-05-18T11:51:05.415Z,13904.00
2019-05-18T11:52:05.278Z,11808.00
2019-05-18T11:53:05.292Z,18592.00
2019-05-18T11:54:05.338Z,22112.00
2019-05-18T11:55:05.339Z,19456.00
2019-05-18T11:56:05.356Z,17216.00
2019-05-18T11:57:05.379Z,12892.00
2019-05-18T11:58:05.397Z,10396.00
2019-05-18T11:59:05.460Z,10892.00
2019-05-18T12:00:05.439Z,20704.00
2019-05-18T12:01:05.547Z,22432.00
2019-05-18T12:02:05.481Z,22240.00
2019-05-18T12:03:05.498Z,21856.00
2019-05-18T12:04:05.508Z,22464.00
2019-05-18T12:05:05.518Z,22240.00
2019-05-18T12:06:05.540Z,13924.00
2019-05-18T12:07:05.555Z,15024.00
2019-05-18T12:08:05.608Z,21632.00
2019-05-18T12:09:05.601Z,21792.00
2019-05-18T12:10:05.622Z,21760.00
2019-05-18T12:11:05.631Z,22336.00
2019-05-18T12:12:05.647Z,22400.00
2019-05-18T12:13:05.679Z,21952.00
2019-05-18T12:14:05.702Z,22432.00
2019-05-18T12:15:05.716Z,21056.00
2019-05-18T12:16:05.737Z,9320.00
2019-05-18T12:17:05.743Z,8624.00
2019-05-18T12:18:05.877Z,8740.00
2019-05-18T12:19:05.783Z,9008.00